MSC Hamburg — 3FYY8 — position and weather

sailwx.info

Track history (hours):
 
Tides and Currents Weather Stations Pressure Air Temp Water Temp Dewpoint Dewpoint Depression Visibility Wind Speed Wind Dir Waves Ship Positions

MSC Hamburg

Last reported at 2018-Apr-22 16:30 UTC. Time now 2018-Apr-23 03:57 UTC.
Position N 35°59' E 120°33'.

Length 399 m; draft 13.6 m.

Type: Ship (hazmat cat A). MMSI: 374886000.

Date/timePositionNaut miles runAvg speedWind from/ knotsBaromVisibWave heightAir tempDewpointWater temp
2018-Apr-22 16:30N 35°59' E 120°33'5 8.7
2018-Apr-22 15:59N 35°60' E 120°28'5 9.6
2018-Apr-22 15:30N 36°01' E 120°22'5 8.5
2018-Apr-22 14:52N 36°02' E 120°16'3 7.1
2018-Apr-22 14:27N 36°00' E 120°13'1 1.0
2018-Apr-22 13:57N 36°00' E 120°12'0 0.0
2018-Apr-22 13:25N 36°00' E 120°12'0 0.0
2018-Apr-22 12:55N 36°00' E 120°12'0 0.0
2018-Apr-22 10:29N 36°00' E 120°12'0 0.0
2018-Apr-22 09:53N 36°00' E 120°12'0 0.0
2018-Apr-22 09:16N 36°00' E 120°12'0 0.0
2018-Apr-22 08:25N 36°00' E 120°12'0 0.0
2018-Apr-22 07:58N 36°00' E 120°12'0 0.0
2018-Apr-22 07:25N 36°00' E 120°12'0 0.0
2018-Apr-22 06:24N 36°00' E 120°12'0 0.0
2018-Apr-22 05:46N 36°00' E 120°12'0 0.0
2018-Apr-22 05:29N 36°00' E 120°12'0 0.0
2018-Apr-22 04:47N 36°00' E 120°12'0 0.0
2018-Apr-22 04:25N 36°00' E 120°12'0 0.0
2018-Apr-22 03:58N 36°00' E 120°12'0 0.0
2018-Apr-22 03:19N 36°00' E 120°12'0 0.0
2018-Apr-22 02:52N 36°00' E 120°12'0 0.0
2018-Apr-22 01:58N 36°00' E 120°12'0 0.0
2018-Apr-22 01:30N 36°00' E 120°12'0 0.0
2018-Apr-22 00:01N 36°00' E 120°12'0 0.0
2018-Apr-21 23:31N 36°00' E 120°12'0 0.0
2018-Apr-21 23:16N 36°00' E 120°12'0 0.0
2018-Apr-21 22:58N 36°00' E 120°12'0 0.0
2018-Apr-21 22:23N 36°00' E 120°12'0 0.0
2018-Apr-21 21:46N 36°00' E 120°12'0 0.0
2018-Apr-21 21:14N 36°00' E 120°12'0 0.0
2018-Apr-21 20:55N 36°00' E 120°12'0 0.0
2018-Apr-21 20:22N 36°00' E 120°12'0 0.0
2018-Apr-21 19:10N 36°00' E 120°12'0 0.0
2018-Apr-21 18:52N 36°00' E 120°12'0 0.0
2018-Apr-21 18:28N 36°00' E 120°12'0 0.0
2018-Apr-21 16:47N 36°00' E 120°12'0 0.0
2018-Apr-21 16:28N 36°00' E 120°12'0 0.0
2018-Apr-21 14:35N 36°00' E 120°12'0 0.0
2018-Apr-21 14:10N 36°00' E 120°12'0 0.0
2018-Apr-21 13:59N 36°00' E 120°12'0 0.0
2018-Apr-21 13:16N 36°00' E 120°12'0 0.0
2018-Apr-21 12:59N 36°00' E 120°12'0 0.0
2018-Apr-21 12:28N 36°00' E 120°12'1 1.3
2018-Apr-21 11:49N 36°01' E 120°13'3 8.0
2018-Apr-21 11:26N 36°02' E 120°16'97 5.1
2018-Apr-20 16:25N 36°15' E 122°16'1110.7
2018-Apr-20 15:25N 36°22' E 122°27'3810.7
2018-Apr-20 11:52N 36°50' E 122°58'410.9
2018-Apr-20 11:30N 36°53' E 123°01'510.9
2018-Apr-20 11:00N 36°58' E 123°05'510.8
2018-Apr-20 10:30N 37°02' E 123°08'611.1
2018-Apr-20 10:00N 37°08' E 123°10'611.3
2018-Apr-20 09:30N 37°13' E 123°11'611.8
2018-Apr-20 09:00N 37°19' E 123°13'5112.5
2018-Apr-20 04:54N 37°57' E 122°30'714.3
2018-Apr-20 04:26N 37°60' E 122°22'614.4
2018-Apr-20 04:01N 38°03' E 122°15'914.6
2018-Apr-20 03:25N 38°06' E 122°05'614.5
2018-Apr-20 02:59N 38°09' E 121°58'714.4
2018-Apr-20 02:29N 38°12' E 121°50'714.4
2018-Apr-20 02:00N 38°15' E 121°42'714.2
2018-Apr-20 01:30N 38°18' E 121°33'714.9
2018-Apr-20 01:01N 38°21' E 121°25'1019.2
2018-Apr-20 00:30N 38°25' E 121°14'1020.0
2018-Apr-20 00:00N 38°30' E 121°02'812.0
2018-Apr-19 23:22N 38°33' E 120°53'410.4
2018-Apr-19 22:59N 38°33' E 120°48'710.4
2018-Apr-19 22:16N 38°35' E 120°39'510.4
2018-Apr-19 21:47N 38°35' E 120°33'310.3
2018-Apr-19 21:30N 38°36' E 120°29'610.2
2018-Apr-19 20:56N 38°36' E 120°22'4 9.9
2018-Apr-19 20:30N 38°37' E 120°16'5 9.9
2018-Apr-19 19:58N 38°38' E 120°09'5 9.9
2018-Apr-19 19:29N 38°38' E 120°03'5 9.7
2018-Apr-19 18:57N 38°39' E 119°57'4 9.6
2018-Apr-19 18:30N 38°40' E 119°51'5 9.4
2018-Apr-19 17:58N 38°40' E 119°45'4 9.6
2018-Apr-19 17:30N 38°41' E 119°39'5 9.5
2018-Apr-19 16:56N 38°42' E 119°32'4 9.6
2018-Apr-19 16:29N 38°42' E 119°27'5 9.6
2018-Apr-19 15:59N 38°43' E 119°21'14 9.7
2018-Apr-19 14:30N 38°45' E 119°03'104 2.9
2018-Apr-18 02:15N 38°32' E 121°15'414.1
2018-Apr-18 02:00N 38°32' E 121°20'714.1
2018-Apr-18 01:30N 38°33' E 121°28'714.2
2018-Apr-18 01:00N 38°34' E 121°38'713.0
2018-Apr-18 00:30N 38°38' E 121°43'714.3
2018-Apr-18 00:00N 38°44' E 121°48'714.4
2018-Apr-17 23:30N 38°51' E 121°53'611.2
2018-Apr-17 23:00N 38°56' E 121°56'3 0.2
2018-Apr-17 06:09N 38°59' E 121°57'210.1
2018-Apr-17 06:00N 38°57' E 121°57'510.1
2018-Apr-17 05:30N 38°52' E 121°57'3 5.9
2018-Apr-17 05:00N 38°50' E 121°59'0 0.9
2018-Apr-17 04:30N 38°50' E 121°60'0 0.8
2018-Apr-17 04:00N 38°50' E 122°00'1 1.4
2018-Apr-17 03:30N 38°50' E 122°01'0 0.5
2018-Apr-17 03:00N 38°51' E 122°01'0 0.7
2018-Apr-17 02:30N 38°51' E 122°01'0 0.7
2018-Apr-17 02:00N 38°51' E 122°02'0 0.7
2018-Apr-17 01:30N 38°51' E 122°02'0 0.9
2018-Apr-17 01:00N 38°51' E 122°03'1 1.3
2018-Apr-17 00:30N 38°51' E 122°03'1 2.9
2018-Apr-17 00:00N 38°50' E 122°05'1 0.6
2018-Apr-16 22:48N 38°50' E 122°06'0 0.0
2018-Apr-16 22:18N 38°50' E 122°06'0 0.2
2018-Apr-16 22:00N 38°50' E 122°06'0 0.0
2018-Apr-16 21:30N 38°50' E 122°06'0 0.0
2018-Apr-16 21:00N 38°50' E 122°06'0 0.0
2018-Apr-16 20:30N 38°50' E 122°06'0 0.1
2018-Apr-16 20:00N 38°50' E 122°06'0 0.1
2018-Apr-16 19:30N 38°50' E 122°06'0 0.1
2018-Apr-16 19:00N 38°50' E 122°06'0 0.0
2018-Apr-16 18:27N 38°50' E 122°06'0 0.0
2018-Apr-16 17:48N 38°50' E 122°06'0 0.0
2018-Apr-16 17:30N 38°50' E 122°06'0 0.0
2018-Apr-16 17:00N 38°50' E 122°06'0 0.1
2018-Apr-16 16:30N 38°50' E 122°06'0 0.0
2018-Apr-16 16:00N 38°50' E 122°06'0 0.3
2018-Apr-16 15:30N 38°50' E 122°06'2 3.4
2018-Apr-16 15:00N 38°49' E 122°07'5 9.9
2018-Apr-16 14:30N 38°44' E 122°08'5 9.7
2018-Apr-16 14:00N 38°39' E 122°08'4 8.8
2018-Apr-16 13:30N 38°36' E 122°12'4 8.7
2018-Apr-16 13:00N 38°32' E 122°15'4 8.8
2018-Apr-16 12:30N 38°29' E 122°19'4 8.9
2018-Apr-16 12:00N 38°26' E 122°23'  
2018-Apr-13 19:06N 30°35' E 122°08'5 0.5
2018-Apr-13 09:41N 30°38' E 122°03'0 0.0
2018-Apr-13 09:11N 30°38' E 122°03'0 0.0
2018-Apr-13 03:52N 30°37' E 122°03'12 7.7
2018-Apr-13 02:22N 30°34' E 122°16'  
Track history (hours):
 
Tides and Currents Weather Stations Pressure Air Temp Water Temp Dewpoint Dewpoint Depression Visibility Wind Speed Wind Dir Waves Ship Positions

MSC Hamburg

Last reported at 2018-Apr-22 16:30 UTC. Time now 2018-Apr-23 03:57 UTC.
Position N 35°59' E 120°33'.

Length 399 m; draft 13.6 m.

Type: Ship (hazmat cat A). MMSI: 374886000.

Date/timePositionNaut miles runAvg speedWind from/ knotsBaromVisibWave heightAir tempDewpointWater temp
2018-Apr-22 16:30N 35°59' E 120°33'5 8.7
2018-Apr-22 15:59N 35°60' E 120°28'5 9.6
2018-Apr-22 15:30N 36°01' E 120°22'5 8.5
2018-Apr-22 14:52N 36°02' E 120°16'3 7.1
2018-Apr-22 14:27N 36°00' E 120°13'1 1.0
2018-Apr-22 13:57N 36°00' E 120°12'0 0.0
2018-Apr-22 13:25N 36°00' E 120°12'0 0.0
2018-Apr-22 12:55N 36°00' E 120°12'0 0.0
2018-Apr-22 10:29N 36°00' E 120°12'0 0.0
2018-Apr-22 09:53N 36°00' E 120°12'0 0.0
2018-Apr-22 09:16N 36°00' E 120°12'0 0.0
2018-Apr-22 08:25N 36°00' E 120°12'0 0.0
2018-Apr-22 07:58N 36°00' E 120°12'0 0.0
2018-Apr-22 07:25N 36°00' E 120°12'0 0.0
2018-Apr-22 06:24N 36°00' E 120°12'0 0.0
2018-Apr-22 05:46N 36°00' E 120°12'0 0.0
2018-Apr-22 05:29N 36°00' E 120°12'0 0.0
2018-Apr-22 04:47N 36°00' E 120°12'0 0.0
2018-Apr-22 04:25N 36°00' E 120°12'0 0.0
2018-Apr-22 03:58N 36°00' E 120°12'0 0.0
2018-Apr-22 03:19N 36°00' E 120°12'0 0.0
2018-Apr-22 02:52N 36°00' E 120°12'0 0.0
2018-Apr-22 01:58N 36°00' E 120°12'0 0.0
2018-Apr-22 01:30N 36°00' E 120°12'0 0.0
2018-Apr-22 00:01N 36°00' E 120°12'0 0.0
2018-Apr-21 23:31N 36°00' E 120°12'0 0.0
2018-Apr-21 23:16N 36°00' E 120°12'0 0.0
2018-Apr-21 22:58N 36°00' E 120°12'0 0.0
2018-Apr-21 22:23N 36°00' E 120°12'0 0.0
2018-Apr-21 21:46N 36°00' E 120°12'0 0.0
2018-Apr-21 21:14N 36°00' E 120°12'0 0.0
2018-Apr-21 20:55N 36°00' E 120°12'0 0.0
2018-Apr-21 20:22N 36°00' E 120°12'0 0.0
2018-Apr-21 19:10N 36°00' E 120°12'0 0.0
2018-Apr-21 18:52N 36°00' E 120°12'0 0.0
2018-Apr-21 18:28N 36°00' E 120°12'0 0.0
2018-Apr-21 16:47N 36°00' E 120°12'0 0.0
2018-Apr-21 16:28N 36°00' E 120°12'0 0.0
2018-Apr-21 14:35N 36°00' E 120°12'0 0.0
2018-Apr-21 14:10N 36°00' E 120°12'0 0.0
2018-Apr-21 13:59N 36°00' E 120°12'0 0.0
2018-Apr-21 13:16N 36°00' E 120°12'0 0.0
2018-Apr-21 12:59N 36°00' E 120°12'0 0.0
2018-Apr-21 12:28N 36°00' E 120°12'1 1.3
2018-Apr-21 11:49N 36°01' E 120°13'3 8.0
2018-Apr-21 11:26N 36°02' E 120°16'97 5.1
2018-Apr-20 16:25N 36°15' E 122°16'1110.7
2018-Apr-20 15:25N 36°22' E 122°27'3810.7
2018-Apr-20 11:52N 36°50' E 122°58'410.9
2018-Apr-20 11:30N 36°53' E 123°01'510.9
2018-Apr-20 11:00N 36°58' E 123°05'510.8
2018-Apr-20 10:30N 37°02' E 123°08'611.1
2018-Apr-20 10:00N 37°08' E 123°10'611.3
2018-Apr-20 09:30N 37°13' E 123°11'611.8
2018-Apr-20 09:00N 37°19' E 123°13'5112.5
2018-Apr-20 04:54N 37°57' E 122°30'714.3
2018-Apr-20 04:26N 37°60' E 122°22'614.4
2018-Apr-20 04:01N 38°03' E 122°15'914.6
2018-Apr-20 03:25N 38°06' E 122°05'614.5
2018-Apr-20 02:59N 38°09' E 121°58'714.4
2018-Apr-20 02:29N 38°12' E 121°50'714.4
2018-Apr-20 02:00N 38°15' E 121°42'714.2
2018-Apr-20 01:30N 38°18' E 121°33'714.9
2018-Apr-20 01:01N 38°21' E 121°25'1019.2
2018-Apr-20 00:30N 38°25' E 121°14'1020.0
2018-Apr-20 00:00N 38°30' E 121°02'812.0
2018-Apr-19 23:22N 38°33' E 120°53'410.4
2018-Apr-19 22:59N 38°33' E 120°48'710.4
2018-Apr-19 22:16N 38°35' E 120°39'510.4
2018-Apr-19 21:47N 38°35' E 120°33'310.3
2018-Apr-19 21:30N 38°36' E 120°29'610.2
2018-Apr-19 20:56N 38°36' E 120°22'4 9.9
2018-Apr-19 20:30N 38°37' E 120°16'5 9.9
2018-Apr-19 19:58N 38°38' E 120°09'5 9.9
2018-Apr-19 19:29N 38°38' E 120°03'5 9.7
2018-Apr-19 18:57N 38°39' E 119°57'4 9.6
2018-Apr-19 18:30N 38°40' E 119°51'5 9.4
2018-Apr-19 17:58N 38°40' E 119°45'4 9.6
2018-Apr-19 17:30N 38°41' E 119°39'5 9.5
2018-Apr-19 16:56N 38°42' E 119°32'4 9.6
2018-Apr-19 16:29N 38°42' E 119°27'5 9.6
2018-Apr-19 15:59N 38°43' E 119°21'14 9.7
2018-Apr-19 14:30N 38°45' E 119°03'104 2.9
2018-Apr-18 02:15N 38°32' E 121°15'414.1
2018-Apr-18 02:00N 38°32' E 121°20'714.1
2018-Apr-18 01:30N 38°33' E 121°28'714.2
2018-Apr-18 01:00N 38°34' E 121°38'713.0
2018-Apr-18 00:30N 38°38' E 121°43'714.3
2018-Apr-18 00:00N 38°44' E 121°48'714.4
2018-Apr-17 23:30N 38°51' E 121°53'611.2
2018-Apr-17 23:00N 38°56' E 121°56'3 0.2
2018-Apr-17 06:09N 38°59' E 121°57'210.1
2018-Apr-17 06:00N 38°57' E 121°57'510.1
2018-Apr-17 05:30N 38°52' E 121°57'3 5.9
2018-Apr-17 05:00N 38°50' E 121°59'0 0.9
2018-Apr-17 04:30N 38°50' E 121°60'0 0.8
2018-Apr-17 04:00N 38°50' E 122°00'1 1.4
2018-Apr-17 03:30N 38°50' E 122°01'0 0.5
2018-Apr-17 03:00N 38°51' E 122°01'0 0.7
2018-Apr-17 02:30N 38°51' E 122°01'0 0.7
2018-Apr-17 02:00N 38°51' E 122°02'0 0.7
2018-Apr-17 01:30N 38°51' E 122°02'0 0.9
2018-Apr-17 01:00N 38°51' E 122°03'1 1.3
2018-Apr-17 00:30N 38°51' E 122°03'1 2.9
2018-Apr-17 00:00N 38°50' E 122°05'1 0.6
2018-Apr-16 22:48N 38°50' E 122°06'0 0.0
2018-Apr-16 22:18N 38°50' E 122°06'0 0.2
2018-Apr-16 22:00N 38°50' E 122°06'0 0.0
2018-Apr-16 21:30N 38°50' E 122°06'0 0.0
2018-Apr-16 21:00N 38°50' E 122°06'0 0.0
2018-Apr-16 20:30N 38°50' E 122°06'0 0.1
2018-Apr-16 20:00N 38°50' E 122°06'0 0.1
2018-Apr-16 19:30N 38°50' E 122°06'0 0.1
2018-Apr-16 19:00N 38°50' E 122°06'0 0.0
2018-Apr-16 18:27N 38°50' E 122°06'0 0.0
2018-Apr-16 17:48N 38°50' E 122°06'0 0.0
2018-Apr-16 17:30N 38°50' E 122°06'0 0.0
2018-Apr-16 17:00N 38°50' E 122°06'0 0.1
2018-Apr-16 16:30N 38°50' E 122°06'0 0.0
2018-Apr-16 16:00N 38°50' E 122°06'0 0.3
2018-Apr-16 15:30N 38°50' E 122°06'2 3.4
2018-Apr-16 15:00N 38°49' E 122°07'5 9.9
2018-Apr-16 14:30N 38°44' E 122°08'5 9.7
2018-Apr-16 14:00N 38°39' E 122°08'4 8.8
2018-Apr-16 13:30N 38°36' E 122°12'4 8.7
2018-Apr-16 13:00N 38°32' E 122°15'4 8.8
2018-Apr-16 12:30N 38°29' E 122°19'4 8.9
2018-Apr-16 12:00N 38°26' E 122°23'  
2018-Apr-13 19:06N 30°35' E 122°08'5 0.5
2018-Apr-13 09:41N 30°38' E 122°03'0 0.0
2018-Apr-13 09:11N 30°38' E 122°03'0 0.0
2018-Apr-13 03:52N 30°37' E 122°03'12 7.7
2018-Apr-13 02:22N 30°34' E 122°16'  

Dump ship's entire track history